sensor_id;sensor_type;location;lat;lon;timestamp;P1;durP1;ratioP1;P2;durP2;ratioP2
7783;SDS011;19359;51.402;6.778;2023-07-31T00:00:51;682.63;;;351.92;;
7783;SDS011;19359;51.402;6.778;2023-07-31T00:03:18;690.65;;;355.92;;
7783;SDS011;19359;51.402;6.778;2023-07-31T00:05:45;673.28;;;357.05;;
7783;SDS011;19359;51.402;6.778;2023-07-31T00:08:12;673.70;;;344.98;;
7783;SDS011;19359;51.402;6.778;2023-07-31T00:10:40;666.42;;;353.98;;
7783;SDS011;19359;51.402;6.778;2023-07-31T00:13:07;663.22;;;352.83;;
7783;SDS011;19359;51.402;6.778;2023-07-31T00:15:34;670.70;;;346.08;;
7783;SDS011;19359;51.402;6.778;2023-07-31T00:18:01;662.63;;;347.70;;
7783;SDS011;19359;51.402;6.778;2023-07-31T00:20:28;676.95;;;356.15;;
7783;SDS011;19359;51.402;6.778;2023-07-31T00:22:55;677.30;;;344.60;;
7783;SDS011;19359;51.402;6.778;2023-07-31T00:25:22;664.80;;;359.48;;
7783;SDS011;19359;51.402;6.778;2023-07-31T00:27:50;662.28;;;348.52;;
7783;SDS011;19359;51.402;6.778;2023-07-31T00:30:17;684.42;;;348.98;;
7783;SDS011;19359;51.402;6.778;2023-07-31T00:32:44;689.47;;;344.95;;
7783;SDS011;19359;51.402;6.778;2023-07-31T00:35:11;691.53;;;348.38;;
7783;SDS011;19359;51.402;6.778;2023-07-31T00:37:38;705.30;;;355.48;;
7783;SDS011;19359;51.402;6.778;2023-07-31T00:40:05;681.33;;;352.05;;
7783;SDS011;19359;51.402;6.778;2023-07-31T00:42:33;679.65;;;347.52;;
7783;SDS011;19359;51.402;6.778;2023-07-31T00:45:02;683.10;;;358.38;;
7783;SDS011;19359;51.402;6.778;2023-07-31T00:47:29;685.28;;;347.83;;
7783;SDS011;19359;51.402;6.778;2023-07-31T00:49:56;689.25;;;352.67;;
7783;SDS011;19359;51.402;6.778;2023-07-31T00:52:23;700.03;;;361.38;;
7783;SDS011;19359;51.402;6.778;2023-07-31T00:54:50;687.97;;;352.02;;
7783;SDS011;19359;51.402;6.778;2023-07-31T00:57:17;696.30;;;363.90;;
7783;SDS011;19359;51.402;6.778;2023-07-31T00:59:44;694.15;;;353.27;;
7783;SDS011;19359;51.402;6.778;2023-07-31T01:02:13;692.20;;;353.17;;
7783;SDS011;19359;51.402;6.778;2023-07-31T01:07:10;693.55;;;350.15;;
7783;SDS011;19359;51.402;6.778;2023-07-31T01:09:40;703.03;;;357.48;;
7783;SDS011;19359;51.402;6.778;2023-07-31T01:12:12;712.97;;;356.17;;
7783;SDS011;19359;51.402;6.778;2023-07-31T01:14:40;730.28;;;359.73;;
7783;SDS011;19359;51.402;6.778;2023-07-31T01:17:18;720.95;;;361.95;;
7783;SDS011;19359;51.402;6.778;2023-07-31T01:19:45;720.58;;;347.88;;
7783;SDS011;19359;51.402;6.778;2023-07-31T01:22:16;728.33;;;364.20;;
7783;SDS011;19359;51.402;6.778;2023-07-31T01:24:59;729.08;;;354.15;;
7783;SDS011;19359;51.402;6.778;2023-07-31T01:27:39;720.58;;;348.73;;
7783;SDS011;19359;51.402;6.778;2023-07-31T01:30:14;728.17;;;351.13;;
7783;SDS011;19359;51.402;6.778;2023-07-31T01:32:42;729.38;;;361.80;;
7783;SDS011;19359;51.402;6.778;2023-07-31T01:35:13;725.78;;;361.65;;
7783;SDS011;19359;51.402;6.778;2023-07-31T01:37:40;723.92;;;359.50;;
7783;SDS011;19359;51.402;6.778;2023-07-31T01:40:08;706.10;;;347.35;;
7783;SDS011;19359;51.402;6.778;2023-07-31T01:42:35;716.67;;;356.65;;
7783;SDS011;19359;51.402;6.778;2023-07-31T01:45:04;711.42;;;357.92;;
7783;SDS011;19359;51.402;6.778;2023-07-31T01:47:31;723.58;;;359.95;;
7783;SDS011;19359;51.402;6.778;2023-07-31T01:49:58;718.63;;;361.52;;
7783;SDS011;19359;51.402;6.778;2023-07-31T01:52:25;724.22;;;361.52;;
7783;SDS011;19359;51.402;6.778;2023-07-31T01:54:52;731.75;;;358.33;;
7783;SDS011;19359;51.402;6.778;2023-07-31T01:57:19;727.22;;;364.95;;
7783;SDS011;19359;51.402;6.778;2023-07-31T01:59:45;731.83;;;367.77;;
7783;SDS011;19359;51.402;6.778;2023-07-31T02:02:14;732.00;;;366.63;;
7783;SDS011;19359;51.402;6.778;2023-07-31T02:04:41;730.45;;;360.10;;
7783;SDS011;19359;51.402;6.778;2023-07-31T02:07:08;732.63;;;364.80;;
7783;SDS011;19359;51.402;6.778;2023-07-31T02:09:35;730.08;;;362.63;;
7783;SDS011;19359;51.402;6.778;2023-07-31T02:12:02;742.63;;;376.13;;
7783;SDS011;19359;51.402;6.778;2023-07-31T02:14:29;728.28;;;362.95;;
7783;SDS011;19359;51.402;6.778;2023-07-31T02:16:56;733.08;;;373.63;;
7783;SDS011;19359;51.402;6.778;2023-07-31T02:19:24;738.88;;;372.50;;
7783;SDS011;19359;51.402;6.778;2023-07-31T02:21:51;740.78;;;365.38;;
7783;SDS011;19359;51.402;6.778;2023-07-31T02:24:18;741.72;;;371.70;;
7783;SDS011;19359;51.402;6.778;2023-07-31T02:26:44;734.13;;;368.48;;
7783;SDS011;19359;51.402;6.778;2023-07-31T02:29:11;736.65;;;373.08;;
7783;SDS011;19359;51.402;6.778;2023-07-31T02:31:38;745.08;;;375.85;;
7783;SDS011;19359;51.402;6.778;2023-07-31T02:34:05;745.45;;;377.02;;
7783;SDS011;19359;51.402;6.778;2023-07-31T02:36:33;748.28;;;377.25;;
7783;SDS011;19359;51.402;6.778;2023-07-31T02:39:00;744.40;;;368.45;;
7783;SDS011;19359;51.402;6.778;2023-07-31T02:41:26;739.92;;;362.33;;
7783;SDS011;19359;51.402;6.778;2023-07-31T02:43:54;738.10;;;366.42;;
7783;SDS011;19359;51.402;6.778;2023-07-31T02:46:20;748.47;;;376.85;;
7783;SDS011;19359;51.402;6.778;2023-07-31T02:48:49;743.55;;;373.25;;
7783;SDS011;19359;51.402;6.778;2023-07-31T02:51:16;741.33;;;371.50;;
7783;SDS011;19359;51.402;6.778;2023-07-31T02:53:46;746.28;;;373.67;;
7783;SDS011;19359;51.402;6.778;2023-07-31T02:56:14;745.75;;;370.23;;
7783;SDS011;19359;51.402;6.778;2023-07-31T02:58:41;741.38;;;372.30;;
7783;SDS011;19359;51.402;6.778;2023-07-31T03:01:08;743.00;;;377.67;;
7783;SDS011;19359;51.402;6.778;2023-07-31T03:03:34;742.60;;;373.98;;
7783;SDS011;19359;51.402;6.778;2023-07-31T03:06:01;740.47;;;373.67;;
7783;SDS011;19359;51.402;6.778;2023-07-31T03:08:28;741.75;;;377.65;;
7783;SDS011;19359;51.402;6.778;2023-07-31T03:10:57;744.97;;;384.13;;
7783;SDS011;19359;51.402;6.778;2023-07-31T03:13:24;746.55;;;380.13;;
7783;SDS011;19359;51.402;6.778;2023-07-31T03:15:51;752.17;;;383.42;;
7783;SDS011;19359;51.402;6.778;2023-07-31T03:18:18;743.38;;;365.77;;
7783;SDS011;19359;51.402;6.778;2023-07-31T03:20:45;740.10;;;375.23;;
7783;SDS011;19359;51.402;6.778;2023-07-31T03:23:12;740.75;;;375.40;;
7783;SDS011;19359;51.402;6.778;2023-07-31T03:25:41;739.60;;;373.58;;
7783;SDS011;19359;51.402;6.778;2023-07-31T03:28:10;744.25;;;379.63;;
7783;SDS011;19359;51.402;6.778;2023-07-31T03:30:36;770.88;;;396.10;;
7783;SDS011;19359;51.402;6.778;2023-07-31T03:33:03;739.75;;;371.25;;
7783;SDS011;19359;51.402;6.778;2023-07-31T03:35:30;741.50;;;371.02;;
7783;SDS011;19359;51.402;6.778;2023-07-31T03:37:57;739.67;;;374.98;;
7783;SDS011;19359;51.402;6.778;2023-07-31T03:40:24;743.83;;;375.65;;
7783;SDS011;19359;51.402;6.778;2023-07-31T03:42:51;756.10;;;377.02;;
7783;SDS011;19359;51.402;6.778;2023-07-31T03:45:19;751.97;;;376.65;;
7783;SDS011;19359;51.402;6.778;2023-07-31T03:47:46;745.28;;;379.38;;
7783;SDS011;19359;51.402;6.778;2023-07-31T03:50:13;754.88;;;388.73;;
7783;SDS011;19359;51.402;6.778;2023-07-31T03:52:40;750.63;;;385.02;;
7783;SDS011;19359;51.402;6.778;2023-07-31T03:55:08;753.97;;;391.63;;
7783;SDS011;19359;51.402;6.778;2023-07-31T03:57:35;747.58;;;380.63;;
7783;SDS011;19359;51.402;6.778;2023-07-31T04:00:01;757.45;;;385.55;;
7783;SDS011;19359;51.402;6.778;2023-07-31T04:02:30;750.40;;;385.92;;
7783;SDS011;19359;51.402;6.778;2023-07-31T04:04:57;756.47;;;391.98;;
7783;SDS011;19359;51.402;6.778;2023-07-31T04:07:23;746.92;;;391.10;;
7783;SDS011;19359;51.402;6.778;2023-07-31T04:09:50;748.90;;;386.80;;
7783;SDS011;19359;51.402;6.778;2023-07-31T04:12:17;755.10;;;401.70;;
7783;SDS011;19359;51.402;6.778;2023-07-31T04:14:44;745.40;;;392.38;;
7783;SDS011;19359;51.402;6.778;2023-07-31T04:17:11;750.45;;;392.60;;
7783;SDS011;19359;51.402;6.778;2023-07-31T04:19:39;753.67;;;390.95;;
7783;SDS011;19359;51.402;6.778;2023-07-31T04:22:06;749.28;;;393.83;;
7783;SDS011;19359;51.402;6.778;2023-07-31T04:24:33;743.72;;;381.05;;
7783;SDS011;19359;51.402;6.778;2023-07-31T04:27:00;755.95;;;399.67;;
7783;SDS011;19359;51.402;6.778;2023-07-31T04:29:27;748.33;;;395.35;;
7783;SDS011;19359;51.402;6.778;2023-07-31T04:31:54;749.50;;;394.10;;
7783;SDS011;19359;51.402;6.778;2023-07-31T04:34:21;747.35;;;388.13;;
7783;SDS011;19359;51.402;6.778;2023-07-31T04:36:49;749.22;;;383.30;;
7783;SDS011;19359;51.402;6.778;2023-07-31T04:39:16;756.25;;;397.77;;
7783;SDS011;19359;51.402;6.778;2023-07-31T04:41:43;746.33;;;385.00;;
7783;SDS011;19359;51.402;6.778;2023-07-31T04:44:10;746.85;;;391.08;;
7783;SDS011;19359;51.402;6.778;2023-07-31T04:46:37;750.42;;;395.25;;
7783;SDS011;19359;51.402;6.778;2023-07-31T04:49:04;770.25;;;409.17;;
7783;SDS011;19359;51.402;6.778;2023-07-31T04:51:30;743.63;;;389.63;;
7783;SDS011;19359;51.402;6.778;2023-07-31T04:53:59;748.40;;;396.38;;
7783;SDS011;19359;51.402;6.778;2023-07-31T04:56:26;742.13;;;389.05;;
7783;SDS011;19359;51.402;6.778;2023-07-31T04:58:53;742.65;;;394.25;;
7783;SDS011;19359;51.402;6.778;2023-07-31T05:01:20;749.90;;;395.23;;
7783;SDS011;19359;51.402;6.778;2023-07-31T05:03:47;746.45;;;391.38;;
7783;SDS011;19359;51.402;6.778;2023-07-31T05:06:14;753.67;;;398.15;;
7783;SDS011;19359;51.402;6.778;2023-07-31T05:08:41;766.45;;;450.92;;
7783;SDS011;19359;51.402;6.778;2023-07-31T05:11:09;751.58;;;400.60;;
7783;SDS011;19359;51.402;6.778;2023-07-31T05:13:36;745.70;;;390.88;;
7783;SDS011;19359;51.402;6.778;2023-07-31T05:16:03;744.70;;;388.20;;
7783;SDS011;19359;51.402;6.778;2023-07-31T05:18:30;742.22;;;398.63;;
7783;SDS011;19359;51.402;6.778;2023-07-31T05:20:57;742.38;;;389.80;;
7783;SDS011;19359;51.402;6.778;2023-07-31T05:23:24;746.92;;;395.88;;
7783;SDS011;19359;51.402;6.778;2023-07-31T05:25:51;744.80;;;397.58;;
7783;SDS011;19359;51.402;6.778;2023-07-31T05:28:20;744.35;;;392.67;;
7783;SDS011;19359;51.402;6.778;2023-07-31T05:30:48;740.28;;;387.65;;
7783;SDS011;19359;51.402;6.778;2023-07-31T05:33:15;746.28;;;401.90;;
7783;SDS011;19359;51.402;6.778;2023-07-31T05:35:42;742.42;;;392.45;;
7783;SDS011;19359;51.402;6.778;2023-07-31T05:38:09;749.97;;;399.55;;
7783;SDS011;19359;51.402;6.778;2023-07-31T05:40:37;748.50;;;395.92;;
7783;SDS011;19359;51.402;6.778;2023-07-31T05:43:04;744.70;;;401.75;;
7783;SDS011;19359;51.402;6.778;2023-07-31T05:45:34;746.20;;;397.17;;
7783;SDS011;19359;51.402;6.778;2023-07-31T05:48:01;741.85;;;394.00;;
7783;SDS011;19359;51.402;6.778;2023-07-31T05:50:29;746.38;;;408.48;;
7783;SDS011;19359;51.402;6.778;2023-07-31T05:52:56;745.38;;;397.10;;
7783;SDS011;19359;51.402;6.778;2023-07-31T05:55:23;767.47;;;418.67;;
7783;SDS011;19359;51.402;6.778;2023-07-31T05:57:51;743.78;;;399.38;;
7783;SDS011;19359;51.402;6.778;2023-07-31T06:00:19;755.13;;;405.55;;
7783;SDS011;19359;51.402;6.778;2023-07-31T06:02:48;746.55;;;405.55;;
7783;SDS011;19359;51.402;6.778;2023-07-31T06:05:15;750.20;;;407.25;;
7783;SDS011;19359;51.402;6.778;2023-07-31T06:07:42;749.47;;;411.50;;
7783;SDS011;19359;51.402;6.778;2023-07-31T06:10:09;777.15;;;428.67;;
7783;SDS011;19359;51.402;6.778;2023-07-31T06:12:36;753.22;;;406.60;;
7783;SDS011;19359;51.402;6.778;2023-07-31T06:15:04;746.28;;;407.13;;
7783;SDS011;19359;51.402;6.778;2023-07-31T06:17:31;749.22;;;414.67;;
7783;SDS011;19359;51.402;6.778;2023-07-31T06:19:59;749.30;;;401.35;;
7783;SDS011;19359;51.402;6.778;2023-07-31T06:22:26;749.20;;;406.08;;
7783;SDS011;19359;51.402;6.778;2023-07-31T06:24:53;750.15;;;413.33;;
7783;SDS011;19359;51.402;6.778;2023-07-31T06:27:20;744.80;;;403.13;;
7783;SDS011;19359;51.402;6.778;2023-07-31T06:29:46;742.70;;;396.48;;
7783;SDS011;19359;51.402;6.778;2023-07-31T06:32:14;746.38;;;401.90;;
7783;SDS011;19359;51.402;6.778;2023-07-31T06:34:40;736.72;;;391.25;;
7783;SDS011;19359;51.402;6.778;2023-07-31T06:37:09;733.88;;;387.45;;
7783;SDS011;19359;51.402;6.778;2023-07-31T06:39:36;740.60;;;396.92;;
7783;SDS011;19359;51.402;6.778;2023-07-31T06:42:03;743.20;;;403.63;;
7783;SDS011;19359;51.402;6.778;2023-07-31T06:44:31;735.72;;;393.00;;
7783;SDS011;19359;51.402;6.778;2023-07-31T06:46:57;729.55;;;383.85;;
7783;SDS011;19359;51.402;6.778;2023-07-31T06:49:24;726.90;;;384.33;;
7783;SDS011;19359;51.402;6.778;2023-07-31T06:51:51;728.08;;;383.90;;
7783;SDS011;19359;51.402;6.778;2023-07-31T06:54:20;725.60;;;378.77;;
7783;SDS011;19359;51.402;6.778;2023-07-31T06:56:46;743.20;;;406.73;;
7783;SDS011;19359;51.402;6.778;2023-07-31T06:59:13;738.28;;;392.15;;
7783;SDS011;19359;51.402;6.778;2023-07-31T07:01:40;725.75;;;384.73;;
7783;SDS011;19359;51.402;6.778;2023-07-31T07:04:07;729.42;;;388.92;;
7783;SDS011;19359;51.402;6.778;2023-07-31T07:06:34;722.85;;;382.00;;
7783;SDS011;19359;51.402;6.778;2023-07-31T07:09:01;732.35;;;388.15;;
7783;SDS011;19359;51.402;6.778;2023-07-31T07:11:30;748.28;;;396.35;;
7783;SDS011;19359;51.402;6.778;2023-07-31T07:13:57;724.25;;;371.52;;
7783;SDS011;19359;51.402;6.778;2023-07-31T07:16:24;735.42;;;385.15;;
7783;SDS011;19359;51.402;6.778;2023-07-31T07:18:51;730.55;;;378.27;;
7783;SDS011;19359;51.402;6.778;2023-07-31T07:21:19;718.13;;;376.55;;
7783;SDS011;19359;51.402;6.778;2023-07-31T07:23:45;726.38;;;385.25;;
7783;SDS011;19359;51.402;6.778;2023-07-31T07:26:12;720.47;;;382.45;;
7783;SDS011;19359;51.402;6.778;2023-07-31T07:28:41;714.70;;;373.98;;
7783;SDS011;19359;51.402;6.778;2023-07-31T07:31:08;709.78;;;369.90;;
7783;SDS011;19359;51.402;6.778;2023-07-31T07:33:34;726.67;;;376.42;;
7783;SDS011;19359;51.402;6.778;2023-07-31T07:36:01;711.90;;;360.13;;
7783;SDS011;19359;51.402;6.778;2023-07-31T07:38:30;710.50;;;364.17;;
7783;SDS011;19359;51.402;6.778;2023-07-31T07:40:57;712.20;;;356.25;;
7783;SDS011;19359;51.402;6.778;2023-07-31T07:43:24;716.63;;;371.58;;
7783;SDS011;19359;51.402;6.778;2023-07-31T07:45:53;724.60;;;379.85;;
7783;SDS011;19359;51.402;6.778;2023-07-31T07:48:20;715.00;;;366.65;;
7783;SDS011;19359;51.402;6.778;2023-07-31T07:50:48;718.13;;;371.75;;
7783;SDS011;19359;51.402;6.778;2023-07-31T07:53:15;719.00;;;364.13;;
7783;SDS011;19359;51.402;6.778;2023-07-31T07:55:42;711.08;;;357.40;;
7783;SDS011;19359;51.402;6.778;2023-07-31T07:58:09;710.88;;;360.20;;
7783;SDS011;19359;51.402;6.778;2023-07-31T08:00:36;703.92;;;353.40;;
7783;SDS011;19359;51.402;6.778;2023-07-31T08:03:05;719.50;;;364.95;;
7783;SDS011;19359;51.402;6.778;2023-07-31T08:05:32;709.00;;;355.50;;
7783;SDS011;19359;51.402;6.778;2023-07-31T08:08:00;718.53;;;359.88;;
7783;SDS011;19359;51.402;6.778;2023-07-31T08:10:27;708.00;;;356.33;;
7783;SDS011;19359;51.402;6.778;2023-07-31T08:12:54;707.00;;;357.05;;
7783;SDS011;19359;51.402;6.778;2023-07-31T08:15:21;717.10;;;369.88;;
7783;SDS011;19359;51.402;6.778;2023-07-31T08:17:48;720.70;;;373.60;;
7783;SDS011;19359;51.402;6.778;2023-07-31T08:20:16;720.67;;;370.67;;
7783;SDS011;19359;51.402;6.778;2023-07-31T08:22:43;710.92;;;368.38;;
7783;SDS011;19359;51.402;6.778;2023-07-31T08:25:10;709.88;;;355.35;;
7783;SDS011;19359;51.402;6.778;2023-07-31T08:27:37;710.50;;;360.40;;
7783;SDS011;19359;51.402;6.778;2023-07-31T08:30:04;722.65;;;362.38;;
7783;SDS011;19359;51.402;6.778;2023-07-31T08:32:31;716.55;;;363.23;;
7783;SDS011;19359;51.402;6.778;2023-07-31T08:34:58;718.25;;;368.25;;
7783;SDS011;19359;51.402;6.778;2023-07-31T08:37:27;722.42;;;378.15;;
7783;SDS011;19359;51.402;6.778;2023-07-31T08:39:54;715.97;;;366.55;;
7783;SDS011;19359;51.402;6.778;2023-07-31T08:42:20;717.85;;;362.35;;
7783;SDS011;19359;51.402;6.778;2023-07-31T08:44:48;720.83;;;360.05;;
7783;SDS011;19359;51.402;6.778;2023-07-31T08:47:15;714.28;;;352.38;;
7783;SDS011;19359;51.402;6.778;2023-07-31T08:49:43;715.22;;;356.70;;
7783;SDS011;19359;51.402;6.778;2023-07-31T08:52:12;723.08;;;366.67;;
7783;SDS011;19359;51.402;6.778;2023-07-31T08:54:40;715.25;;;355.85;;
7783;SDS011;19359;51.402;6.778;2023-07-31T08:57:07;721.60;;;361.80;;
7783;SDS011;19359;51.402;6.778;2023-07-31T08:59:35;723.35;;;371.42;;
7783;SDS011;19359;51.402;6.778;2023-07-31T09:02:03;719.95;;;366.90;;
7783;SDS011;19359;51.402;6.778;2023-07-31T09:04:32;720.20;;;357.10;;
7783;SDS011;19359;51.402;6.778;2023-07-31T09:07:00;725.67;;;375.30;;
7783;SDS011;19359;51.402;6.778;2023-07-31T09:09:29;713.55;;;365.33;;
7783;SDS011;19359;51.402;6.778;2023-07-31T09:11:58;726.67;;;377.83;;
7783;SDS011;19359;51.402;6.778;2023-07-31T09:14:25;711.17;;;372.42;;
7783;SDS011;19359;51.402;6.778;2023-07-31T09:16:53;707.08;;;366.02;;
7783;SDS011;19359;51.402;6.778;2023-07-31T09:19:27;706.92;;;365.83;;
7783;SDS011;19359;51.402;6.778;2023-07-31T09:21:55;707.78;;;364.08;;
7783;SDS011;19359;51.402;6.778;2023-07-31T09:24:25;714.35;;;377.35;;
7783;SDS011;19359;51.402;6.778;2023-07-31T09:26:53;709.70;;;377.75;;
7783;SDS011;19359;51.402;6.778;2023-07-31T09:29:22;716.30;;;368.52;;
7783;SDS011;19359;51.402;6.778;2023-07-31T09:31:50;729.17;;;385.63;;
7783;SDS011;19359;51.402;6.778;2023-07-31T09:34:17;705.38;;;369.02;;
7783;SDS011;19359;51.402;6.778;2023-07-31T09:36:44;708.85;;;370.52;;
7783;SDS011;19359;51.402;6.778;2023-07-31T09:39:12;709.47;;;375.17;;
7783;SDS011;19359;51.402;6.778;2023-07-31T09:41:41;703.30;;;369.73;;
7783;SDS011;19359;51.402;6.778;2023-07-31T09:44:09;712.10;;;377.42;;
7783;SDS011;19359;51.402;6.778;2023-07-31T09:46:37;704.15;;;370.55;;
7783;SDS011;19359;51.402;6.778;2023-07-31T09:49:08;718.08;;;391.02;;
7783;SDS011;19359;51.402;6.778;2023-07-31T09:51:36;711.33;;;388.30;;
7783;SDS011;19359;51.402;6.778;2023-07-31T09:54:08;716.17;;;378.20;;
7783;SDS011;19359;51.402;6.778;2023-07-31T09:56:36;707.38;;;373.92;;
7783;SDS011;19359;51.402;6.778;2023-07-31T09:59:07;705.65;;;371.92;;
7783;SDS011;19359;51.402;6.778;2023-07-31T10:01:34;719.65;;;384.50;;
7783;SDS011;19359;51.402;6.778;2023-07-31T10:04:03;713.20;;;382.20;;
7783;SDS011;19359;51.402;6.778;2023-07-31T10:06:31;713.33;;;377.02;;
7783;SDS011;19359;51.402;6.778;2023-07-31T10:09:00;711.83;;;381.10;;
7783;SDS011;19359;51.402;6.778;2023-07-31T10:11:28;709.78;;;370.30;;
7783;SDS011;19359;51.402;6.778;2023-07-31T10:14:00;708.63;;;378.77;;
7783;SDS011;19359;51.402;6.778;2023-07-31T10:16:28;716.67;;;387.52;;
7783;SDS011;19359;51.402;6.778;2023-07-31T10:18:56;722.25;;;388.58;;
7783;SDS011;19359;51.402;6.778;2023-07-31T10:21:25;717.10;;;388.15;;
7783;SDS011;19359;51.402;6.778;2023-07-31T10:23:52;715.10;;;388.25;;
7783;SDS011;19359;51.402;6.778;2023-07-31T10:26:19;709.05;;;379.70;;
7783;SDS011;19359;51.402;6.778;2023-07-31T10:28:46;706.00;;;374.02;;
7783;SDS011;19359;51.402;6.778;2023-07-31T10:31:16;735.17;;;400.35;;
7783;SDS011;19359;51.402;6.778;2023-07-31T10:33:44;717.75;;;384.30;;
7783;SDS011;19359;51.402;6.778;2023-07-31T10:36:12;722.03;;;397.83;;
7783;SDS011;19359;51.402;6.778;2023-07-31T10:38:41;724.97;;;403.25;;
7783;SDS011;19359;51.402;6.778;2023-07-31T10:41:08;719.28;;;390.20;;
7783;SDS011;19359;51.402;6.778;2023-07-31T10:43:35;719.92;;;395.45;;
7783;SDS011;19359;51.402;6.778;2023-07-31T10:46:06;732.50;;;404.75;;
7783;SDS011;19359;51.402;6.778;2023-07-31T10:48:34;720.75;;;393.23;;
7783;SDS011;19359;51.402;6.778;2023-07-31T10:51:02;724.40;;;400.30;;
7783;SDS011;19359;51.402;6.778;2023-07-31T10:53:34;719.65;;;392.63;;
7783;SDS011;19359;51.402;6.778;2023-07-31T10:56:03;723.35;;;400.45;;
7783;SDS011;19359;51.402;6.778;2023-07-31T10:58:31;724.35;;;390.98;;
7783;SDS011;19359;51.402;6.778;2023-07-31T11:00:58;740.60;;;416.52;;
7783;SDS011;19359;51.402;6.778;2023-07-31T11:03:26;727.60;;;400.60;;
7783;SDS011;19359;51.402;6.778;2023-07-31T11:06:06;729.15;;;405.42;;
7783;SDS011;19359;51.402;6.778;2023-07-31T11:08:34;725.35;;;391.58;;
7783;SDS011;19359;51.402;6.778;2023-07-31T11:11:08;738.90;;;410.48;;
7783;SDS011;19359;51.402;6.778;2023-07-31T11:13:40;730.45;;;411.98;;
7783;SDS011;19359;51.402;6.778;2023-07-31T11:16:08;751.88;;;426.33;;
7783;SDS011;19359;51.402;6.778;2023-07-31T11:18:35;731.55;;;414.15;;
7783;SDS011;19359;51.402;6.778;2023-07-31T11:21:02;741.80;;;422.25;;
7783;SDS011;19359;51.402;6.778;2023-07-31T11:23:30;735.28;;;420.90;;
7783;SDS011;19359;51.402;6.778;2023-07-31T11:25:58;734.45;;;418.85;;
7783;SDS011;19359;51.402;6.778;2023-07-31T11:28:30;743.58;;;424.83;;
7783;SDS011;19359;51.402;6.778;2023-07-31T11:30:58;737.47;;;432.60;;
7783;SDS011;19359;51.402;6.778;2023-07-31T11:33:25;743.42;;;420.30;;
7783;SDS011;19359;51.402;6.778;2023-07-31T11:35:53;739.88;;;415.48;;
7783;SDS011;19359;51.402;6.778;2023-07-31T11:38:23;744.25;;;415.70;;
7783;SDS011;19359;51.402;6.778;2023-07-31T11:40:50;741.95;;;425.00;;
7783;SDS011;19359;51.402;6.778;2023-07-31T11:43:18;750.15;;;429.35;;
7783;SDS011;19359;51.402;6.778;2023-07-31T11:45:47;741.15;;;418.15;;
7783;SDS011;19359;51.402;6.778;2023-07-31T11:48:18;739.53;;;424.25;;
7783;SDS011;19359;51.402;6.778;2023-07-31T11:50:47;738.53;;;406.50;;
7783;SDS011;19359;51.402;6.778;2023-07-31T11:53:15;746.40;;;425.60;;
7783;SDS011;19359;51.402;6.778;2023-07-31T11:55:43;738.15;;;423.30;;
7783;SDS011;19359;51.402;6.778;2023-07-31T11:58:10;734.08;;;418.95;;
7783;SDS011;19359;51.402;6.778;2023-07-31T12:00:37;736.25;;;410.75;;
7783;SDS011;19359;51.402;6.778;2023-07-31T12:03:06;730.40;;;410.42;;
7783;SDS011;19359;51.402;6.778;2023-07-31T12:05:33;735.35;;;413.88;;
7783;SDS011;19359;51.402;6.778;2023-07-31T12:08:00;729.47;;;409.27;;
7783;SDS011;19359;51.402;6.778;2023-07-31T12:10:28;733.10;;;408.02;;
7783;SDS011;19359;51.402;6.778;2023-07-31T12:12:56;728.67;;;397.55;;
7783;SDS011;19359;51.402;6.778;2023-07-31T12:15:28;732.90;;;397.20;;
7783;SDS011;19359;51.402;6.778;2023-07-31T12:17:57;738.00;;;408.67;;
7783;SDS011;19359;51.402;6.778;2023-07-31T12:20:25;727.75;;;401.52;;
7783;SDS011;19359;51.402;6.778;2023-07-31T12:22:52;732.25;;;401.65;;
7783;SDS011;19359;51.402;6.778;2023-07-31T12:25:23;735.47;;;405.42;;
7783;SDS011;19359;51.402;6.778;2023-07-31T12:27:50;734.90;;;406.92;;
7783;SDS011;19359;51.402;6.778;2023-07-31T12:30:26;727.67;;;401.52;;
7783;SDS011;19359;51.402;6.778;2023-07-31T12:32:54;736.47;;;417.77;;
7783;SDS011;19359;51.402;6.778;2023-07-31T12:35:21;735.25;;;424.50;;
7783;SDS011;19359;51.402;6.778;2023-07-31T12:37:49;733.45;;;418.23;;
7783;SDS011;19359;51.402;6.778;2023-07-31T12:40:16;739.50;;;423.17;;
7783;SDS011;19359;51.402;6.778;2023-07-31T12:42:43;744.25;;;427.75;;
7783;SDS011;19359;51.402;6.778;2023-07-31T12:45:10;749.47;;;436.33;;
7783;SDS011;19359;51.402;6.778;2023-07-31T12:47:37;751.72;;;433.67;;
7783;SDS011;19359;51.402;6.778;2023-07-31T12:50:04;749.15;;;429.80;;
7783;SDS011;19359;51.402;6.778;2023-07-31T12:52:32;747.47;;;435.52;;
7783;SDS011;19359;51.402;6.778;2023-07-31T12:55:00;748.28;;;428.30;;
7783;SDS011;19359;51.402;6.778;2023-07-31T12:57:27;737.72;;;421.55;;
7783;SDS011;19359;51.402;6.778;2023-07-31T12:59:54;745.97;;;431.88;;
7783;SDS011;19359;51.402;6.778;2023-07-31T13:02:22;748.60;;;430.50;;
7783;SDS011;19359;51.402;6.778;2023-07-31T13:04:49;731.20;;;410.88;;
7783;SDS011;19359;51.402;6.778;2023-07-31T13:07:16;738.42;;;425.15;;
7783;SDS011;19359;51.402;6.778;2023-07-31T13:09:43;746.45;;;422.27;;
7783;SDS011;19359;51.402;6.778;2023-07-31T13:12:11;749.05;;;435.83;;
7783;SDS011;19359;51.402;6.778;2023-07-31T13:14:38;734.92;;;417.10;;
7783;SDS011;19359;51.402;6.778;2023-07-31T13:17:05;737.40;;;426.02;;
7783;SDS011;19359;51.402;6.778;2023-07-31T13:19:32;738.10;;;430.25;;
7783;SDS011;19359;51.402;6.778;2023-07-31T13:21:59;742.40;;;432.45;;
7783;SDS011;19359;51.402;6.778;2023-07-31T13:24:26;762.70;;;462.05;;
7783;SDS011;19359;51.402;6.778;2023-07-31T13:26:53;746.85;;;431.20;;
7783;SDS011;19359;51.402;6.778;2023-07-31T13:29:22;750.83;;;447.02;;
7783;SDS011;19359;51.402;6.778;2023-07-31T13:31:50;747.80;;;444.05;;
7783;SDS011;19359;51.402;6.778;2023-07-31T13:34:18;765.67;;;464.92;;
7783;SDS011;19359;51.402;6.778;2023-07-31T13:36:45;748.97;;;447.95;;
7783;SDS011;19359;51.402;6.778;2023-07-31T13:39:12;754.38;;;451.58;;
7783;SDS011;19359;51.402;6.778;2023-07-31T13:41:38;746.65;;;445.05;;
7783;SDS011;19359;51.402;6.778;2023-07-31T13:44:05;751.90;;;449.13;;
7783;SDS011;19359;51.402;6.778;2023-07-31T13:46:33;752.20;;;463.15;;
7783;SDS011;19359;51.402;6.778;2023-07-31T13:49:00;757.95;;;454.83;;
7783;SDS011;19359;51.402;6.778;2023-07-31T13:51:27;754.80;;;465.45;;
7783;SDS011;19359;51.402;6.778;2023-07-31T13:53:54;755.95;;;465.92;;
7783;SDS011;19359;51.402;6.778;2023-07-31T13:56:21;758.88;;;479.98;;
7783;SDS011;19359;51.402;6.778;2023-07-31T13:58:48;766.28;;;475.17;;
7783;SDS011;19359;51.402;6.778;2023-07-31T14:01:15;774.75;;;504.90;;
7783;SDS011;19359;51.402;6.778;2023-07-31T14:03:44;786.00;;;507.73;;
7783;SDS011;19359;51.402;6.778;2023-07-31T14:06:10;778.30;;;493.70;;
7783;SDS011;19359;51.402;6.778;2023-07-31T14:08:37;784.47;;;501.25;;
7783;SDS011;19359;51.402;6.778;2023-07-31T14:11:04;774.88;;;496.13;;
7783;SDS011;19359;51.402;6.778;2023-07-31T14:13:32;779.22;;;507.65;;